Time;durP1;ratioP1;P1;durP2;ratioP2;P2;SDS_P1;SDS_P2;PMS_P1;PMS_P2;Temp;Humidity;BMP_temperature;BMP_pressure;BME280_temperature;BME280_humidity;BME280_pressure;Samples;Min_cycle;Max_cycle;Signal;HPM_P1;HPM_P2
2021/12/31 00:01:12;;;;;;;19.98;9.27;;;-2.90;89.30;;;;;;5056199;28;20040;-74
2021/12/31 00:03:38;;;;;;;24.98;10.48;;;-2.90;89.40;;;;;;5054659;28;20025;-79
2021/12/31 00:06:04;;;;;;;18.60;8.68;;;-2.90;89.30;;;;;;5055670;28;20025;-76
2021/12/31 00:08:29;;;;;;;20.58;9.15;;;-2.90;89.50;;;;;;5054389;28;20124;-78
2021/12/31 00:10:59;;;;;;;17.83;9.57;;;-2.90;89.60;;;;;;5055653;28;20112;-76
2021/12/31 00:13:26;;;;;;;16.15;8.57;;;-2.90;89.80;;;;;;5054404;28;20444;-77
2021/12/31 00:15:52;;;;;;;20.58;10.07;;;-2.90;89.70;;;;;;5055493;28;20029;-76
2021/12/31 00:18:18;;;;;;;21.45;9.15;;;-3.00;89.60;;;;;;5054229;28;20058;-78
2021/12/31 00:20:43;;;;;;;17.15;8.43;;;-3.00;89.60;;;;;;5054337;28;20032;-76
2021/12/31 00:23:12;;;;;;;14.77;7.45;;;-3.00;89.70;;;;;;5040524;28;20032;-78
2021/12/31 00:25:40;;;;;;;26.40;9.15;;;-3.00;89.90;;;;;;5035411;28;20379;-78
2021/12/31 00:28:07;;;;;;;11.73;7.47;;;-3.00;89.90;;;;;;5035172;28;20441;-79
2021/12/31 00:30:34;;;;;;;19.40;9.60;;;-3.00;90.00;;;;;;5035549;28;20029;-75
2021/12/31 00:33:01;;;;;;;13.05;6.47;;;-3.00;90.00;;;;;;5035403;28;20511;-78
2021/12/31 00:35:28;;;;;;;20.70;9.35;;;-3.00;90.00;;;;;;5034153;28;20064;-75
2021/12/31 00:37:54;;;;;;;23.58;10.10;;;-3.00;90.10;;;;;;5034264;28;20467;-78
2021/12/31 00:40:19;;;;;;;21.65;11.02;;;-3.00;90.00;;;;;;5035193;28;20025;-78
2021/12/31 00:42:46;;;;;;;21.38;10.35;;;-3.00;90.00;;;;;;5033888;28;20026;-79
2021/12/31 00:45:15;;;;;;;21.25;10.40;;;-3.00;89.70;;;;;;5033868;28;20032;-79
2021/12/31 00:47:41;;;;;;;13.82;7.47;;;-2.90;89.90;;;;;;5035033;28;20082;-79
2021/12/31 00:50:07;;;;;;;12.45;7.63;;;-3.00;89.90;;;;;;5033734;28;20029;-76
2021/12/31 00:52:33;;;;;;;16.13;8.10;;;-3.00;89.80;;;;;;5033775;28;20022;-80
2021/12/31 00:54:59;;;;;;;7.65;4.20;;;-3.00;89.80;;;;;;5034925;28;20502;-80
2021/12/31 00:57:25;;;;;;;22.25;9.25;;;-3.00;89.90;;;;;;5034955;28;20034;-80
2021/12/31 00:59:50;;;;;;;19.52;7.03;;;-2.90;89.70;;;;;;5034946;28;20501;-79
2021/12/31 01:02:18;;;;;;;22.08;9.50;;;-3.00;89.70;;;;;;5034865;28;20021;-80
2021/12/31 01:04:44;;;;;;;17.65;8.60;;;-3.00;89.20;;;;;;5049857;28;20025;-79
2021/12/31 01:07:09;;;;;;;23.80;11.95;;;-3.00;89.30;;;;;;5033492;28;20380;-79
2021/12/31 01:09:35;;;;;;;29.40;12.23;;;-3.00;89.00;;;;;;5033103;28;20076;-79
2021/12/31 01:12:02;;;;;;;26.70;10.98;;;-3.00;89.70;;;;;;5033784;28;20053;-79
2021/12/31 01:16:59;;;;;;;47.00;17.42;;;-3.00;89.40;;;;;;5034703;28;20472;-79
2021/12/31 01:21:52;;;;;;;33.38;9.07;;;-3.00;89.30;;;;;;5034549;28;20452;-79
2021/12/31 01:24:19;;;;;;;42.83;17.27;;;-2.90;89.20;;;;;;5033557;28;20033;-79
2021/12/31 01:26:45;;;;;;;18.48;7.90;;;-3.00;88.90;;;;;;5033146;28;20120;-79
2021/12/31 01:29:11;;;;;;;53.83;19.05;;;-3.00;89.40;;;;;;5034414;28;20483;-77
2021/12/31 01:31:37;;;;;;;29.48;13.85;;;-3.00;88.90;;;;;;5032802;28;20060;-79
2021/12/31 01:34:03;;;;;;;57.65;20.20;;;-3.00;88.90;;;;;;5033460;28;20021;-80
2021/12/31 01:36:29;;;;;;;22.85;10.50;;;-3.00;88.90;;;;;;5033537;28;20030;-81
2021/12/31 01:38:55;;;;;;;35.78;11.52;;;-3.00;88.90;;;;;;5034274;28;20112;-81
2021/12/31 01:41:21;;;;;;;39.67;13.27;;;-3.00;88.80;;;;;;5034487;28;20025;-79
2021/12/31 01:43:47;;;;;;;33.38;14.27;;;-3.00;88.60;;;;;;5032636;28;20079;-79
2021/12/31 01:46:13;;;;;;;39.05;12.23;;;-3.00;88.40;;;;;;5037589;28;20029;-76
2021/12/31 01:51:23;;;;;;;29.20;14.68;;;-3.00;88.40;;;;;;5036127;28;20124;-76
2021/12/31 01:53:49;;;;;;;26.27;12.13;;;-3.00;88.70;;;;;;5053042;28;20471;-76
2021/12/31 01:56:15;;;;;;;10.07;6.07;;;-3.00;88.90;;;;;;5054092;28;20406;-74
2021/12/31 01:58:42;;;;;;;18.88;9.20;;;-3.00;88.50;;;;;;5053859;28;20021;-75
2021/12/31 02:01:10;;;;;;;14.65;9.77;;;-3.00;88.40;;;;;;5052715;28;20025;-76
2021/12/31 02:03:37;;;;;;;45.50;16.15;;;-2.90;88.50;;;;;;5032651;28;20033;-75
2021/12/31 02:06:04;;;;;;;23.85;11.35;;;-3.00;88.10;;;;;;5034053;28;20080;-75
2021/12/31 02:08:31;;;;;;;33.85;13.48;;;-3.00;88.20;;;;;;5032499;28;20116;-76
2021/12/31 02:10:57;;;;;;;23.98;10.02;;;-3.00;88.00;;;;;;5044379;28;20041;-76
2021/12/31 02:13:24;;;;;;;22.45;10.05;;;-3.00;88.20;;;;;;5054354;28;20098;-76
2021/12/31 02:15:51;;;;;;;31.75;13.75;;;-2.90;88.00;;;;;;5053402;28;20029;-75
2021/12/31 02:18:18;;;;;;;25.73;9.57;;;-3.00;87.90;;;;;;5053520;28;20083;-77
2021/12/31 02:20:46;;;;;;;18.92;8.10;;;-3.00;88.00;;;;;;5044251;28;20116;-76
2021/12/31 02:23:16;;;;;;;31.85;13.55;;;-3.00;87.80;;;;;;5037306;28;20456;-75
2021/12/31 02:25:41;;;;;;;32.55;13.93;;;-3.00;88.00;;;;;;5037773;28;20018;-76
2021/12/31 02:28:07;;;;;;;42.72;19.95;;;-3.00;87.80;;;;;;5037754;28;20040;-76
2021/12/31 02:30:33;;;;;;;36.92;15.82;;;-3.00;87.70;;;;;;5044142;28;20029;-74
2021/12/31 02:32:59;;;;;;;20.75;9.23;;;-3.00;87.60;;;;;;5056394;28;20036;-76
2021/12/31 02:35:26;;;;;;;18.00;9.80;;;-3.00;87.50;;;;;;5057599;28;20503;-74
2021/12/31 02:37:52;;;;;;;26.02;11.52;;;-3.10;87.50;;;;;;5057517;28;20029;-75
2021/12/31 02:40:19;;;;;;;18.80;8.95;;;-3.10;87.50;;;;;;5050565;28;20435;-75
2021/12/31 02:42:45;;;;;;;17.95;8.13;;;-3.10;87.70;;;;;;5037784;28;20033;-75
2021/12/31 02:45:12;;;;;;;14.52;8.93;;;-3.10;87.80;;;;;;5036207;28;20128;-75
2021/12/31 02:47:44;;;;;;;14.40;8.00;;;-3.10;87.80;;;;;;5041243;28;20040;-76
2021/12/31 02:50:18;;;;;;;18.77;8.55;;;-3.10;87.60;;;;;;5056886;28;20104;-75
2021/12/31 02:52:45;;;;;;;21.35;9.50;;;-3.10;87.60;;;;;;5055787;28;20031;-76
2021/12/31 02:55:12;;;;;;;34.15;15.68;;;-3.10;87.80;;;;;;5057173;28;20074;-75
2021/12/31 02:57:41;;;;;;;48.13;22.63;;;-3.10;87.90;;;;;;5052835;28;20139;-75
2021/12/31 03:00:08;;;;;;;33.55;16.38;;;-3.20;88.30;;;;;;5035875;28;20037;-74
2021/12/31 03:02:37;;;;;;;30.30;13.57;;;-3.10;88.80;;;;;;5037619;28;20032;-73
2021/12/31 03:05:04;;;;;;;50.05;20.10;;;-3.10;88.30;;;;;;5035652;28;20030;-73
2021/12/31 03:07:30;;;;;;;35.90;15.75;;;-3.10;88.40;;;;;;5037057;28;20507;-74
2021/12/31 03:09:58;;;;;;;46.75;17.98;;;-3.00;88.30;;;;;;5057118;28;20029;-74
2021/12/31 03:12:24;;;;;;;78.88;30.00;;;-3.10;87.90;;;;;;5056978;28;20183;-76
2021/12/31 03:14:50;;;;;;;31.33;15.52;;;-3.10;87.90;;;;;;5055930;28;20480;-76
2021/12/31 03:17:18;;;;;;;45.05;20.20;;;-3.10;87.80;;;;;;5041627;28;20383;-75
2021/12/31 03:19:44;;;;;;;28.95;13.23;;;-3.10;88.10;;;;;;5036610;28;20025;-75
2021/12/31 03:22:10;;;;;;;38.70;14.23;;;-3.10;88.70;;;;;;5035503;28;20049;-77
2021/12/31 03:24:35;;;;;;;28.50;13.45;;;-3.10;88.00;;;;;;5037004;28;20032;-74
2021/12/31 03:27:01;;;;;;;19.02;9.43;;;-3.10;87.90;;;;;;5046569;28;20029;-75
2021/12/31 03:29:27;;;;;;;36.45;13.35;;;-3.10;88.10;;;;;;5056400;28;20112;-73
2021/12/31 03:31:53;;;;;;;23.60;10.80;;;-3.10;87.80;;;;;;5056560;28;20113;-74
2021/12/31 03:34:19;;;;;;;26.63;12.57;;;-3.10;87.90;;;;;;5051665;28;20021;-77
2021/12/31 03:36:45;;;;;;;25.05;11.98;;;-3.10;88.10;;;;;;5036489;28;20029;-76
2021/12/31 03:39:11;;;;;;;23.55;10.52;;;-3.20;88.10;;;;;;5036448;28;20060;-76
2021/12/31 03:41:37;;;;;;;26.92;10.68;;;-3.20;88.40;;;;;;5036523;28;20104;-75
2021/12/31 03:44:04;;;;;;;16.20;8.63;;;-3.20;88.80;;;;;;5035784;28;20051;-75
2021/12/31 03:46:30;;;;;;;27.13;12.30;;;-3.20;89.00;;;;;;5055980;28;20031;-76
2021/12/31 03:48:55;;;;;;;25.60;9.98;;;-3.20;89.30;;;;;;5035313;28;20446;-74
2021/12/31 03:51:21;;;;;;;17.75;9.77;;;-3.10;89.50;;;;;;5036283;28;20057;-75
2021/12/31 03:53:47;;;;;;;16.15;8.43;;;-3.20;89.30;;;;;;5036462;28;20033;-76
2021/12/31 03:56:13;;;;;;;25.33;12.00;;;-3.20;89.40;;;;;;5053905;28;20029;-76
2021/12/31 03:58:38;;;;;;;23.95;10.82;;;-3.20;89.80;;;;;;5055907;28;20040;-74
2021/12/31 04:01:04;;;;;;;25.65;10.43;;;-3.10;89.90;;;;;;5056190;28;20021;-73
2021/12/31 04:03:30;;;;;;;26.15;9.95;;;-3.10;89.70;;;;;;5055876;28;20021;-75
2021/12/31 04:05:56;;;;;;;28.48;11.70;;;-3.10;89.70;;;;;;5039273;28;20033;-74
2021/12/31 04:08:21;;;;;;;16.60;9.63;;;-3.00;89.90;;;;;;5035142;28;20491;-74
2021/12/31 04:10:47;;;;;;;20.10;8.70;;;-3.00;89.80;;;;;;5035828;28;20052;-73
2021/12/31 04:13:13;;;;;;;27.85;11.90;;;-3.00;88.90;;;;;;5035764;28;20057;-75
2021/12/31 04:15:39;;;;;;;26.00;10.65;;;-3.00;88.70;;;;;;5047030;28;20086;-75
2021/12/31 04:18:05;;;;;;;22.02;9.80;;;-3.00;89.10;;;;;;5055699;28;20524;-75
2021/12/31 04:20:40;;;;;;;28.83;10.32;;;-3.00;89.20;;;;;;5055224;28;20025;-75
2021/12/31 04:23:13;;;;;;;32.45;13.00;;;-3.00;89.20;;;;;;5048129;28;20025;-75
2021/12/31 04:25:39;;;;;;;26.85;11.50;;;-3.00;89.40;;;;;;5045996;28;20036;-76
2021/12/31 04:28:05;;;;;;;22.13;9.32;;;-3.10;89.80;;;;;;5055353;28;20037;-76
2021/12/31 04:30:31;;;;;;;37.35;12.90;;;-3.00;90.00;;;;;;5055275;28;20044;-74
2021/12/31 04:32:58;;;;;;;26.02;9.95;;;-3.00;89.80;;;;;;5055284;28;20029;-76
2021/12/31 04:35:24;;;;;;;37.63;14.98;;;-3.00;90.00;;;;;;5045078;28;20021;-77
2021/12/31 04:37:50;;;;;;;28.00;9.52;;;-3.00;90.00;;;;;;5035491;28;20045;-75
2021/12/31 04:40:15;;;;;;;17.67;6.47;;;-3.00;90.00;;;;;;5035690;28;20021;-73
2021/12/31 04:42:46;;;;;;;13.25;7.80;;;-3.00;89.90;;;;;;5034600;28;20025;-72
2021/12/31 04:45:12;;;;;;;22.20;10.07;;;-3.00;90.10;;;;;;5041164;28;20096;-74
2021/12/31 04:47:39;;;;;;;15.65;8.15;;;-3.00;90.10;;;;;;5054106;28;20053;-75
2021/12/31 04:50:06;;;;;;;18.33;8.70;;;-3.00;90.10;;;;;;5053205;28;20059;-80
2021/12/31 04:52:32;;;;;;;19.50;8.52;;;-3.00;90.20;;;;;;5052786;28;20141;-83
2021/12/31 04:54:58;;;;;;;19.55;8.35;;;-2.90;90.20;;;;;;5035724;28;20152;-78
2021/12/31 04:57:25;;;;;;;18.48;10.02;;;-2.90;90.10;;;;;;5034985;28;20036;-82
2021/12/31 04:59:51;;;;;;;24.60;12.05;;;-3.00;90.10;;;;;;5034815;28;20029;-80
2021/12/31 05:02:17;;;;;;;18.60;9.05;;;-2.90;90.10;;;;;;5034861;28;20032;-83
2021/12/31 05:04:43;;;;;;;18.75;8.50;;;-2.90;90.20;;;;;;5050258;28;20047;-83
2021/12/31 05:07:09;;;;;;;23.42;10.70;;;-2.90;90.20;;;;;;5053072;28;20386;-84
2021/12/31 05:09:35;;;;;;;27.13;11.25;;;-3.00;90.10;;;;;;5036491;28;20037;-80
2021/12/31 05:12:03;;;;;;;26.67;10.95;;;-3.00;90.20;;;;;;5034247;28;20091;-85
2021/12/31 05:14:29;;;;;;;22.45;10.75;;;-3.00;90.30;;;;;;5046792;28;20033;-84
2021/12/31 05:16:56;;;;;;;22.20;10.88;;;-3.00;90.30;;;;;;5053370;28;20025;-85
2021/12/31 05:19:21;;;;;;;20.77;8.13;;;-3.00;90.30;;;;;;5054145;28;20051;-77
2021/12/31 05:21:47;;;;;;;15.07;8.43;;;-3.10;90.40;;;;;;5034371;28;20029;-86
2021/12/31 05:24:14;;;;;;;26.73;9.57;;;-3.10;90.60;;;;;;5033283;28;20029;-79
2021/12/31 05:26:40;;;;;;;29.38;9.65;;;-3.10;90.70;;;;;;5034678;28;20121;-78
2021/12/31 05:29:06;;;;;;;24.52;10.05;;;-3.10;90.80;;;;;;5040559;28;20481;-77
2021/12/31 05:31:32;;;;;;;20.13;9.75;;;-3.10;91.00;;;;;;5053829;28;20079;-84
2021/12/31 05:33:57;;;;;;;29.85;12.82;;;-3.10;91.10;;;;;;5036313;28;20059;-84
2021/12/31 05:36:23;;;;;;;23.75;9.80;;;-3.00;91.10;;;;;;5038751;28;20021;-84
2021/12/31 05:38:48;;;;;;;37.50;13.75;;;-3.00;91.20;;;;;;5053043;28;20036;-80
2021/12/31 05:41:14;;;;;;;23.90;10.95;;;-3.00;91.30;;;;;;5054025;28;20332;-78
2021/12/31 05:43:40;;;;;;;18.65;9.75;;;-3.00;91.00;;;;;;5052585;28;20032;-84
2021/12/31 05:46:05;;;;;;;17.63;9.63;;;-3.00;91.20;;;;;;5052578;28;20032;-78
2021/12/31 05:48:31;;;;;;;17.08;8.52;;;-2.90;91.40;;;;;;5042400;28;20033;-86
2021/12/31 05:50:58;;;;;;;13.55;10.35;;;-2.80;91.50;;;;;;5049872;28;20033;-85
2021/12/31 05:53:24;;;;;;;25.42;11.10;;;-2.80;91.50;;;;;;5052864;28;20039;-82
2021/12/31 05:55:50;;;;;;;12.55;6.90;;;-2.70;91.40;;;;;;5048445;28;20028;-86
2021/12/31 05:58:16;;;;;;;26.52;12.75;;;-2.70;91.30;;;;;;5031914;28;20030;-85
2021/12/31 06:00:41;;;;;;;14.07;8.02;;;-2.60;91.20;;;;;;5046938;28;20033;-80
2021/12/31 06:03:07;;;;;;;13.00;6.55;;;-2.60;91.00;;;;;;5034889;28;20037;-78
2021/12/31 06:05:33;;;;;;;18.50;7.60;;;-2.60;91.20;;;;;;5038594;28;20024;-85
2021/12/31 06:07:59;;;;;;;8.30;4.88;;;-2.60;91.10;;;;;;5033096;28;20040;-80
2021/12/31 06:10:25;;;;;;;13.35;6.07;;;-2.60;91.20;;;;;;5033226;28;20033;-77
2021/12/31 06:12:56;;;;;;;16.42;7.75;;;-2.50;90.90;;;;;;5033281;28;20159;-78
2021/12/31 06:15:22;;;;;;;22.92;9.15;;;-2.50;91.00;;;;;;5032690;28;20421;-76
2021/12/31 06:17:48;;;;;;;15.77;8.02;;;-2.50;90.90;;;;;;5051716;28;20037;-83
2021/12/31 06:20:13;;;;;;;10.85;6.15;;;-2.50;90.90;;;;;;5047099;28;20029;-85
2021/12/31 06:22:39;;;;;;;12.15;6.95;;;-2.40;91.00;;;;;;5033966;28;20030;-78
2021/12/31 06:25:05;;;;;;;10.65;7.30;;;-2.40;91.10;;;;;;5036542;28;20036;-82
2021/12/31 06:27:31;;;;;;;24.30;7.93;;;-2.40;91.30;;;;;;5039304;28;20030;-81
2021/12/31 06:29:57;;;;;;;12.60;7.82;;;-2.30;91.50;;;;;;5041062;28;20518;-79
2021/12/31 06:32:23;;;;;;;11.45;5.32;;;-2.20;91.50;;;;;;5044532;28;20394;-82
2021/12/31 06:34:49;;;;;;;9.32;4.75;;;-2.20;91.10;;;;;;5038529;28;20025;-77
2021/12/31 06:37:14;;;;;;;18.77;9.77;;;-2.20;91.10;;;;;;5035041;28;20113;-81
2021/12/31 06:39:42;;;;;;;18.45;9.98;;;-2.20;91.10;;;;;;5046174;28;20109;-81
2021/12/31 06:42:08;;;;;;;8.90;5.32;;;-2.10;91.20;;;;;;5051758;28;20485;-82
2021/12/31 06:44:35;;;;;;;15.60;7.13;;;-2.10;91.00;;;;;;5051802;28;20029;-82
2021/12/31 06:47:02;;;;;;;19.08;9.50;;;-2.00;91.10;;;;;;5052839;28;20511;-79
2021/12/31 06:49:28;;;;;;;23.17;10.00;;;-2.00;90.90;;;;;;5048658;28;20037;-79
2021/12/31 06:51:54;;;;;;;16.98;7.95;;;-2.00;90.80;;;;;;5035635;28;20033;-82
2021/12/31 06:54:20;;;;;;;12.68;7.03;;;-2.00;91.00;;;;;;5032703;28;20028;-80
2021/12/31 06:56:45;;;;;;;19.45;7.85;;;-2.00;91.00;;;;;;5031964;28;20039;-82
2021/12/31 06:59:11;;;;;;;12.80;4.60;;;-1.90;91.10;;;;;;5033097;28;20030;-74
2021/12/31 07:01:37;;;;;;;11.30;5.10;;;-1.90;91.00;;;;;;5033559;28;20092;-78
2021/12/31 07:04:02;;;;;;;24.40;9.63;;;-1.90;91.20;;;;;;5044373;28;20083;-81
2021/12/31 07:06:28;;;;;;;15.48;7.05;;;-1.80;91.30;;;;;;5031779;28;20025;-80
2021/12/31 07:08:54;;;;;;;6.35;4.15;;;-1.80;91.40;;;;;;5034919;28;20033;-81
2021/12/31 07:11:22;;;;;;;9.57;5.93;;;-1.70;91.10;;;;;;5035838;28;20033;-78
2021/12/31 07:13:51;;;;;;;7.53;4.95;;;-1.70;91.00;;;;;;5036240;28;20053;-77
2021/12/31 07:16:17;;;;;;;12.02;7.18;;;-1.70;91.10;;;;;;5046931;28;20040;-75
2021/12/31 07:18:43;;;;;;;16.75;7.35;;;-1.70;91.20;;;;;;5059530;28;20033;-76
2021/12/31 07:21:09;;;;;;;27.27;10.52;;;-1.60;91.20;;;;;;5055904;28;20048;-76
2021/12/31 07:23:35;;;;;;;9.98;5.38;;;-1.50;91.30;;;;;;5075566;28;20454;-76
2021/12/31 07:26:00;;;;;;;21.80;10.02;;;-1.40;91.60;;;;;;5077126;28;20143;-74
2021/12/31 07:28:27;;;;;;;27.08;9.80;;;-1.30;91.20;;;;;;5076838;28;20405;-76
2021/12/31 07:30:53;;;;;;;14.25;5.18;;;-1.20;91.00;;;;;;5070703;28;20043;-79
2021/12/31 07:33:22;;;;;;;23.13;11.70;;;-1.20;90.90;;;;;;5070059;28;20029;-77
2021/12/31 07:35:49;;;;;;;30.08;12.27;;;-1.10;90.80;;;;;;5074949;28;20028;-77
2021/12/31 07:38:37;;;;;;;30.63;12.27;;;-1.00;91.20;;;;;;5072413;28;20017;-78
2021/12/31 07:41:03;;;;;;;29.52;12.70;;;-0.80;92.00;;;;;;5035610;28;20456;-76
2021/12/31 07:43:29;;;;;;;26.13;12.18;;;-0.60;92.20;;;;;;5035267;28;20029;-79
2021/12/31 07:45:55;;;;;;;37.33;16.88;;;-0.50;91.80;;;;;;5036167;28;20444;-81
2021/12/31 07:48:21;;;;;;;35.42;13.82;;;-0.30;91.50;;;;;;5036270;28;20069;-79
2021/12/31 07:50:47;;;;;;;39.10;16.65;;;-0.20;91.10;;;;;;5036196;28;20065;-80
2021/12/31 07:53:13;;;;;;;53.05;22.75;;;-0.10;90.70;;;;;;5051284;28;20044;-76
2021/12/31 07:55:39;;;;;;;75.57;44.72;;;-0.10;90.80;;;;;;5075965;28;20083;-79
2021/12/31 07:58:05;;;;;;;44.80;15.43;;;-0.10;90.10;;;;;;5071572;28;20060;-79
2021/12/31 08:00:32;;;;;;;41.30;16.45;;;0.00;89.60;;;;;;5074382;28;20024;-76
2021/12/31 08:02:58;;;;;;;50.58;18.70;;;0.00;89.60;;;;;;5057736;28;20037;-81
2021/12/31 08:05:28;;;;;;;32.17;9.95;;;0.00;90.00;;;;;;5069604;28;20025;-79
2021/12/31 08:07:54;;;;;;;68.03;25.13;;;0.00;89.70;;;;;;5056157;28;20046;-79
2021/12/31 08:10:20;;;;;;;73.72;29.17;;;0.00;89.40;;;;;;5058634;28;20062;-76
2021/12/31 08:12:47;;;;;;;56.47;21.95;;;0.00;89.70;;;;;;5074613;28;20394;-80
2021/12/31 08:15:13;;;;;;;29.48;12.88;;;0.00;88.90;;;;;;5065775;28;20032;-82
2021/12/31 08:17:38;;;;;;;40.72;16.90;;;-0.10;87.20;;;;;;5075406;28;20033;-76
2021/12/31 08:20:05;;;;;;;57.08;20.95;;;-0.30;86.60;;;;;;5047962;28;20029;-80
2021/12/31 08:22:31;;;;;;;48.22;18.85;;;-0.50;86.80;;;;;;5050322;28;20053;-83
2021/12/31 08:24:57;;;;;;;44.95;20.48;;;-0.60;87.20;;;;;;5043972;28;20123;-81
2021/12/31 08:27:23;;;;;;;41.58;16.08;;;-0.70;87.70;;;;;;5035950;28;20129;-81
2021/12/31 08:29:49;;;;;;;33.92;14.57;;;-0.80;88.40;;;;;;5042071;28;20045;-82
2021/12/31 08:32:15;;;;;;;32.03;14.63;;;-0.80;88.20;;;;;;5046682;28;20031;-79
2021/12/31 08:34:40;;;;;;;53.20;21.33;;;-0.90;88.50;;;;;;5040685;28;20029;-80
2021/12/31 08:37:06;;;;;;;50.45;20.33;;;-0.90;88.90;;;;;;5037108;28;20029;-82
2021/12/31 08:39:34;;;;;;;58.08;20.15;;;-0.90;89.30;;;;;;5045597;28;20083;-79
2021/12/31 08:42:01;;;;;;;64.78;25.92;;;-1.00;89.00;;;;;;5043177;28;20039;-81
2021/12/31 08:44:28;;;;;;;48.67;21.05;;;-1.00;89.20;;;;;;5037829;28;20491;-81
2021/12/31 08:46:54;;;;;;;56.65;22.38;;;-1.10;89.60;;;;;;5036488;28;20036;-81
2021/12/31 08:49:20;;;;;;;38.65;16.63;;;-1.10;89.90;;;;;;5050123;28;20535;-83
2021/12/31 08:51:47;;;;;;;16.58;9.48;;;-1.10;90.20;;;;;;5040307;28;20060;-82
2021/12/31 08:54:12;;;;;;;10.88;6.57;;;-1.00;90.70;;;;;;5037695;28;20026;-81
2021/12/31 08:56:39;;;;;;;45.00;16.27;;;-0.90;90.90;;;;;;5036409;28;20028;-80
2021/12/31 08:59:04;;;;;;;16.08;9.88;;;-0.80;90.90;;;;;;5043913;28;20025;-82
2021/12/31 09:01:30;;;;;;;41.75;17.75;;;-0.70;90.80;;;;;;5033259;28;20036;-81
2021/12/31 09:03:56;;;;;;;36.17;14.18;;;-0.60;90.50;;;;;;5041770;28;20029;-82
2021/12/31 09:06:22;;;;;;;56.38;19.33;;;-0.70;90.50;;;;;;5036235;28;20466;-78
2021/12/31 09:08:48;;;;;;;31.95;14.70;;;-0.60;90.80;;;;;;5032996;28;20095;-81
2021/12/31 09:11:15;;;;;;;38.50;16.33;;;-0.60;90.80;;;;;;5042853;28;20036;-82
2021/12/31 09:13:42;;;;;;;64.65;20.92;;;-0.60;90.50;;;;;;5038672;28;20122;-80
2021/12/31 09:16:09;;;;;;;45.97;16.65;;;-0.60;90.70;;;;;;5037933;28;20041;-80
2021/12/31 09:18:35;;;;;;;41.28;19.27;;;-0.50;91.10;;;;;;5041054;28;20037;-82
2021/12/31 09:21:01;;;;;;;56.38;24.75;;;-0.40;90.90;;;;;;5037213;28;20386;-80
2021/12/31 09:23:27;;;;;;;63.67;24.77;;;-0.40;90.60;;;;;;5043664;28;20025;-81
2021/12/31 09:25:52;;;;;;;45.13;19.98;;;-0.50;90.60;;;;;;5043143;28;20048;-80
2021/12/31 09:28:18;;;;;;;65.75;23.25;;;-0.40;90.90;;;;;;5041255;28;20059;-80
2021/12/31 09:30:44;;;;;;;52.78;20.50;;;-0.40;90.90;;;;;;5045155;28;20092;-76
2021/12/31 09:33:10;;;;;;;22.85;11.52;;;-0.30;90.90;;;;;;5043108;28;20045;-79
2021/12/31 09:35:36;;;;;;;48.88;19.77;;;-0.30;91.20;;;;;;5042230;28;20057;-81
2021/12/31 09:38:08;;;;;;;40.08;16.00;;;-0.20;91.30;;;;;;5038548;28;20124;-79
2021/12/31 09:40:34;;;;;;;45.92;18.38;;;-0.10;91.20;;;;;;5044890;28;20038;-80
2021/12/31 09:43:01;;;;;;;39.72;18.30;;;0.00;91.10;;;;;;5038119;28;20464;-80
2021/12/31 09:45:28;;;;;;;17.30;9.40;;;0.00;91.00;;;;;;5041950;28;20025;-81
2021/12/31 09:47:58;;;;;;;68.53;24.67;;;0.00;90.80;;;;;;5042533;28;20048;-77
2021/12/31 09:50:24;;;;;;;41.15;19.15;;;0.00;90.90;;;;;;5043986;28;20144;-80
2021/12/31 09:52:53;;;;;;;23.55;12.05;;;0.00;90.80;;;;;;5034193;28;20033;-79
2021/12/31 09:55:39;;;;;;;27.42;12.13;;;-0.10;90.80;;;;;;5043866;28;20490;-80
2021/12/31 09:58:08;;;;;;;36.58;15.43;;;0.00;91.20;;;;;;5048236;28;20036;-79
2021/12/31 10:00:34;;;;;;;17.80;8.80;;;0.00;91.30;;;;;;5046699;28;20077;-82
2021/12/31 10:03:13;;;;;;;32.58;13.95;;;0.00;91.60;;;;;;5042376;28;20025;-80
2021/12/31 10:05:43;;;;;;;34.28;15.13;;;0.00;91.70;;;;;;5040643;28;20411;-78
2021/12/31 10:08:21;;;;;;;28.55;12.27;;;0.10;91.70;;;;;;5040565;28;20056;-82
2021/12/31 10:11:13;;;;;;;21.52;11.43;;;0.10;92.10;;;;;;5041032;28;20026;-82
2021/12/31 10:13:42;;;;;;;36.50;14.27;;;0.20;92.40;;;;;;5040783;28;20480;-80
2021/12/31 10:16:30;;;;;;;24.30;9.15;;;0.30;92.20;;;;;;5033658;28;20033;-81
2021/12/31 10:19:11;;;;;;;44.47;18.15;;;0.30;92.10;;;;;;5039658;28;20104;-81
2021/12/31 10:21:46;;;;;;;39.75;15.30;;;0.30;92.20;;;;;;5043399;28;20049;-79
2021/12/31 10:24:39;;;;;;;65.68;24.23;;;0.40;92.30;;;;;;5054463;28;20074;-78
2021/12/31 10:27:12;;;;;;;54.97;22.40;;;0.50;92.50;;;;;;5054170;28;20127;-78
2021/12/31 10:29:53;;;;;;;44.38;16.58;;;0.50;92.50;;;;;;5058757;28;20044;-78
2021/12/31 10:32:21;;;;;;;43.67;18.13;;;0.60;92.70;;;;;;5073806;28;20412;-81
2021/12/31 10:34:46;;;;;;;40.75;17.10;;;0.80;92.80;;;;;;5072832;28;20029;-79
2021/12/31 10:37:25;;;;;;;30.73;11.73;;;0.90;92.90;;;;;;5073718;28;20348;-78
2021/12/31 10:39:59;;;;;;;19.17;10.05;;;1.00;92.60;;;;;;5063453;28;20021;-77
2021/12/31 10:42:30;;;;;;;27.55;11.63;;;1.00;91.50;;;;;;5053660;28;20040;-77
2021/12/31 10:44:57;;;;;;;40.90;15.73;;;1.00;91.90;;;;;;5071004;28;20474;-77
2021/12/31 10:47:33;;;;;;;52.55;18.88;;;1.10;91.80;;;;;;5075748;28;20489;-79
2021/12/31 10:50:15;;;;;;;69.30;26.85;;;1.00;91.30;;;;;;5074875;28;20068;-78
2021/12/31 10:52:55;;;;;;;52.50;19.40;;;1.00;91.60;;;;;;5074697;28;20021;-79
2021/12/31 10:55:25;;;;;;;39.50;17.80;;;1.00;91.60;;;;;;5056746;28;20136;-78
2021/12/31 10:57:57;;;;;;;51.50;19.35;;;1.10;91.70;;;;;;5046270;28;20501;-74
2021/12/31 11:00:25;;;;;;;42.33;17.08;;;1.00;91.30;;;;;;5042555;28;20040;-78
2021/12/31 11:02:50;;;;;;;38.65;15.07;;;0.90;91.40;;;;;;5063801;28;20063;-78
2021/12/31 11:05:21;;;;;;;28.50;12.35;;;0.90;91.70;;;;;;5065418;28;20055;-76
2021/12/31 11:07:48;;;;;;;21.95;10.30;;;0.90;91.40;;;;;;5075739;28;20087;-77
2021/12/31 11:10:15;;;;;;;31.65;12.60;;;0.90;91.40;;;;;;5075848;28;20097;-76
2021/12/31 11:12:46;;;;;;;36.65;15.32;;;0.90;91.60;;;;;;5061920;28;20057;-79
2021/12/31 11:15:14;;;;;;;41.95;17.90;;;0.90;91.80;;;;;;5061958;28;20077;-80
2021/12/31 11:17:40;;;;;;;37.58;14.07;;;0.90;92.30;;;;;;5067066;28;20033;-71
2021/12/31 11:20:08;;;;;;;28.75;12.77;;;0.90;91.40;;;;;;5040068;28;20053;-79
2021/12/31 11:22:34;;;;;;;26.10;9.93;;;0.90;91.40;;;;;;5064298;28;20041;-78
2021/12/31 11:25:20;;;;;;;25.45;12.52;;;0.90;91.60;;;;;;5061040;28;20100;-80
2021/12/31 11:27:47;;;;;;;23.38;12.40;;;0.90;91.50;;;;;;5069117;28;20067;-80
2021/12/31 11:30:28;;;;;;;44.80;15.27;;;0.80;91.80;;;;;;5058246;28;20040;-79
2021/12/31 11:32:58;;;;;;;42.15;16.23;;;0.80;91.70;;;;;;5056448;28;20052;-75
2021/12/31 11:35:33;;;;;;;37.72;14.98;;;0.80;91.70;;;;;;5056587;28;20033;-79
2021/12/31 11:38:00;;;;;;;34.17;13.18;;;0.80;91.90;;;;;;5066107;28;20042;-79
2021/12/31 11:40:50;;;;;;;44.83;18.23;;;0.80;91.90;;;;;;5076042;28;20381;-80
2021/12/31 11:43:24;;;;;;;54.15;18.25;;;0.80;92.10;;;;;;5067578;28;20402;-79
2021/12/31 11:46:09;;;;;;;57.90;22.25;;;0.80;92.30;;;;;;5041959;28;20025;-78
2021/12/31 11:48:51;;;;;;;91.30;29.10;;;0.90;92.60;;;;;;5042543;28;20376;-81
2021/12/31 11:51:35;;;;;;;60.28;22.23;;;1.00;93.20;;;;;;5045249;28;20029;-80
2021/12/31 11:54:01;;;;;;;47.63;18.70;;;1.10;92.90;;;;;;5041726;28;20029;-79
2021/12/31 11:56:43;;;;;;;34.17;15.27;;;1.20;92.60;;;;;;5051403;28;20037;-80
2021/12/31 11:59:09;;;;;;;35.88;15.48;;;1.20;92.60;;;;;;5065538;28;20044;-81
2021/12/31 12:02:04;;;;;;;53.05;18.73;;;1.20;92.30;;;;;;5076205;28;20465;-82
2021/12/31 12:04:32;;;;;;;39.40;16.85;;;1.30;92.10;;;;;;5075904;28;20055;-81
2021/12/31 12:07:04;;;;;;;38.05;13.65;;;1.20;91.80;;;;;;5074544;28;20050;-82
2021/12/31 12:09:41;;;;;;;40.47;16.58;;;1.30;91.80;;;;;;5057425;28;20091;-80
2021/12/31 12:12:11;;;;;;;16.63;9.20;;;1.30;91.30;;;;;;5066285;28;20045;-79
2021/12/31 12:14:40;;;;;;;59.05;21.92;;;1.10;91.10;;;;;;5059074;28;20487;-75
2021/12/31 12:17:10;;;;;;;58.38;20.48;;;1.10;91.30;;;;;;5071357;28;20039;-77
2021/12/31 12:20:01;;;;;;;34.08;14.63;;;1.00;91.50;;;;;;5064652;28;20511;-74
2021/12/31 12:22:37;;;;;;;91.25;31.05;;;0.90;91.70;;;;;;5064720;28;20430;-80
2021/12/31 12:25:04;;;;;;;75.10;28.75;;;0.90;91.80;;;;;;5070422;28;20116;-80
2021/12/31 12:27:30;;;;;;;65.82;23.30;;;0.90;92.00;;;;;;5073202;28;20036;-83
2021/12/31 12:29:57;;;;;;;49.25;18.55;;;0.90;92.30;;;;;;5073833;28;20028;-80
2021/12/31 12:32:36;;;;;;;66.82;21.45;;;0.90;92.10;;;;;;5073892;28;20356;-82
2021/12/31 12:35:21;;;;;;;70.20;28.25;;;1.00;92.10;;;;;;5074165;28;20035;-83
2021/12/31 12:38:07;;;;;;;55.10;22.50;;;1.00;91.90;;;;;;5075122;28;20035;-82
2021/12/31 12:40:42;;;;;;;49.97;18.58;;;0.90;91.80;;;;;;5074781;28;20509;-83
2021/12/31 12:43:23;;;;;;;49.47;20.87;;;0.90;91.80;;;;;;5074197;28;20029;-82
2021/12/31 12:45:56;;;;;;;72.97;23.58;;;0.80;91.90;;;;;;5075317;28;20025;-81